Nogales International Airport
KOLS : now visible

Airfield :











YOU CAN JOIN US ON...

 
LOGIN :

Register | Disclaimer

   EN    FR    IT 

 









Legend :    VFR   Marginal VFR   IFR   Intensive IFR   Very Intensive IFR
Visi :
Ceiling :
>= 8 km
>= 3000ft
5 to 8 km
1000 to 3000 ft
1500m to 5 km
500 to 1000 ft
800 to 1500m
200 to 500 ft
< 800m
< 200 ft
Symbols :   Thunderstorms  Fog  Heavy snow  Heavy precipitations  Wind > 20 kt






- Airport Elevation : 3955 ft


KOLS - Nogales International

CURRENT METAR :
  • 221154Z AUTO 00000KT 10SM OVC045 07/05 A3010 RMK AO2 SLP171 70036 T00670050 10089 20067 55003 $

EXPIRED METARs :
  • 221054Z AUTO 00000KT 10SM OVC047 08/05 A3010 RMK AO2 SLP169 T00780050 $
  • 220954Z AUTO 03004KT 10SM BKN044 08/06 A3011 RMK AO2 SLP170 T00780056 $

TAF KOLS
Valid from the 22 at 12:00 until the 23 at 12:00 UTC


221120Z 2212/2312 VRB04KT P6SM SCT025 BKN050
FM221700 VRB03KT P6SM SCT060
FM222100 32006KT P6SM SCT070 BKN200
FM230300 VRB03KT P6SM SCT200



MET'MAP, your aeronautical weather chart ! - Copyright ORBIFLY December 2007 - Disclaimer

ORBIFLY MET'MAP TEAM :

Programming & Development : Alexandra Zaïnal
Concept & Development : Baudouin d'Aumeries
Co-Development & Prog : Marc-Olivier Méhu
Technical & hardware support : Manuel Goepfert

Contact : metmap@orbifly.com




SOURCES & CREDITS :

   NOAA       Earth
Advisory